createdAt,value
2018-05-10T00:02:34.946Z,23.58
2018-05-10T00:17:34.610Z,23.59
2018-05-10T00:32:36.683Z,23.52
2018-05-10T00:47:34.889Z,23.43
2018-05-10T01:02:34.931Z,23.44
2018-05-10T01:17:34.875Z,23.33
2018-05-10T01:32:34.462Z,23.25
2018-05-10T01:47:34.235Z,23.26
2018-05-10T02:02:34.187Z,23.18
2018-05-10T02:17:34.289Z,23.13
2018-05-10T02:32:34.149Z,23.13
2018-05-10T02:47:34.629Z,23.05
2018-05-10T03:02:34.588Z,22.97
2018-05-10T03:17:35.050Z,23.00
2018-05-10T03:32:34.415Z,22.93
2018-05-10T03:47:34.905Z,22.92
2018-05-10T04:02:46.569Z,21.77
2018-05-10T04:17:35.069Z,20.35
2018-05-10T04:32:35.906Z,19.68
2018-05-10T04:47:35.425Z,19.31
2018-05-10T05:02:37.073Z,19.39
2018-05-10T05:17:34.583Z,19.64
2018-05-10T05:32:41.347Z,19.68
2018-05-10T05:47:36.354Z,19.86
2018-05-10T06:02:34.371Z,19.95
2018-05-10T06:17:34.361Z,20.13
2018-05-10T06:32:34.376Z,20.48
2018-05-10T06:47:34.777Z,20.98
2018-05-10T07:02:36.850Z,22.17
2018-05-10T07:17:34.725Z,22.41
2018-05-10T07:32:34.942Z,22.99
2018-05-10T07:47:35.290Z,23.45
2018-05-10T08:02:35.291Z,23.68
2018-05-10T08:17:35.139Z,24.81
2018-05-10T08:32:34.632Z,24.88
2018-05-10T08:47:36.570Z,24.52
2018-05-10T09:02:36.558Z,24.04
2018-05-10T09:17:34.931Z,24.02
2018-05-10T09:32:34.244Z,23.82
2018-05-10T09:47:34.741Z,24.52
2018-05-10T10:02:35.225Z,25.28
2018-05-10T10:17:34.864Z,25.93
2018-05-10T10:32:34.721Z,25.84
2018-05-10T10:47:35.094Z,24.00
2018-05-10T11:02:35.190Z,23.31
2018-05-10T11:17:34.839Z,22.69
2018-05-10T11:32:34.378Z,22.28
2018-05-10T11:47:35.270Z,21.83
2018-05-10T12:02:33.696Z,21.41
2018-05-10T12:17:34.218Z,21.01
2018-05-10T12:32:36.313Z,20.62
2018-05-10T12:47:36.572Z,20.71
2018-05-10T13:02:34.554Z,20.68
2018-05-10T13:17:34.426Z,20.48
2018-05-10T13:32:34.534Z,20.39
2018-05-10T13:47:34.752Z,20.23
2018-05-10T14:02:36.771Z,19.79
2018-05-10T14:17:35.026Z,19.50
2018-05-10T14:32:35.495Z,19.50
2018-05-10T14:47:34.299Z,19.44
2018-05-10T15:02:34.032Z,19.29
2018-05-10T15:17:35.015Z,20.92
2018-05-10T15:32:36.673Z,20.53
2018-05-10T15:47:34.567Z,19.80
2018-05-10T16:02:33.502Z,19.62
2018-05-10T16:17:34.659Z,19.37
2018-05-10T16:32:34.658Z,19.22
2018-05-10T16:47:34.850Z,19.02
2018-05-10T17:02:34.758Z,18.84
2018-05-10T17:17:35.001Z,18.77
2018-05-10T17:32:34.594Z,18.57
2018-05-10T17:47:35.294Z,18.47
2018-05-10T18:02:37.003Z,18.47
2018-05-10T18:17:35.051Z,18.55
2018-05-10T18:32:34.628Z,18.39
2018-05-10T18:47:35.002Z,18.31
2018-05-10T19:02:34.254Z,18.26
2018-05-10T19:17:34.433Z,19.42
2018-05-10T19:32:34.576Z,21.63
2018-05-10T19:47:36.905Z,22.46
2018-05-10T20:02:35.382Z,22.85
2018-05-10T20:17:36.742Z,22.97
2018-05-10T20:32:36.736Z,23.07
2018-05-10T20:47:34.762Z,23.07
2018-05-10T21:02:35.091Z,22.91
2018-05-10T21:17:34.748Z,22.89
2018-05-10T21:32:36.828Z,22.87
2018-05-10T21:47:34.199Z,22.75
2018-05-10T22:02:34.498Z,22.73
2018-05-10T22:17:34.458Z,22.80
2018-05-10T22:32:34.242Z,22.77
2018-05-10T22:47:33.487Z,22.91
2018-05-10T23:02:34.666Z,22.88
2018-05-10T23:17:35.385Z,22.90
2018-05-10T23:32:34.394Z,22.98
2018-05-10T23:47:36.886Z,22.97
